createdAt,value
2018-12-27T00:01:10.796Z,71.13
2018-12-27T00:06:30.435Z,70.94
2018-12-27T00:11:49.885Z,70.30
2018-12-27T00:17:09.199Z,70.73
2018-12-27T00:22:28.213Z,71.26
2018-12-27T00:27:48.108Z,71.19
2018-12-27T00:33:08.411Z,71.22
2018-12-27T00:38:28.743Z,71.86
2018-12-27T00:43:47.992Z,72.24
2018-12-27T00:49:07.205Z,72.09
2018-12-27T00:54:27.817Z,72.51
2018-12-27T00:59:47.100Z,72.68
2018-12-27T01:05:06.843Z,72.93
2018-12-27T01:10:26.793Z,74.04
2018-12-27T01:15:46.669Z,74.38
2018-12-27T01:21:05.692Z,75.18
2018-12-27T01:26:25.103Z,75.29
2018-12-27T01:31:50.625Z,75.71
2018-12-27T01:37:05.072Z,77.03
2018-12-27T01:42:24.416Z,78.50
2018-12-27T01:47:44.137Z,79.12
2018-12-27T01:53:03.856Z,80.55
2018-12-27T01:58:23.452Z,82.25
2018-12-27T02:03:43.369Z,81.79
2018-12-27T02:09:03.675Z,82.54
2018-12-27T02:14:24.048Z,81.97
2018-12-27T02:19:43.770Z,82.60
2018-12-27T02:25:03.275Z,81.85
2018-12-27T02:30:23.134Z,82.37
2018-12-27T02:35:42.788Z,82.26
2018-12-27T02:41:02.916Z,82.39
2018-12-27T02:46:23.889Z,84.25
2018-12-27T02:51:44.261Z,83.53
2018-12-27T02:57:03.405Z,83.09
2018-12-27T03:02:22.595Z,83.27
2018-12-27T03:07:41.716Z,82.94
2018-12-27T03:13:01.127Z,82.32
2018-12-27T03:18:20.094Z,82.47
2018-12-27T03:23:39.449Z,82.79
2018-12-27T03:28:58.676Z,82.71
2018-12-27T03:34:18.043Z,82.37
2018-12-27T03:39:37.706Z,82.40
2018-12-27T03:44:57.321Z,82.91
2018-12-27T03:50:16.686Z,83.46
2018-12-27T03:55:35.928Z,84.04
2018-12-27T04:00:56.614Z,85.12
2018-12-27T04:06:16.038Z,85.10
2018-12-27T04:11:35.543Z,85.95
2018-12-27T04:16:54.817Z,87.53
2018-12-27T04:22:14.096Z,88.27
2018-12-27T04:27:33.777Z,87.91
2018-12-27T04:32:53.124Z,87.46
2018-12-27T04:38:15.921Z,87.11
2018-12-27T04:43:36.094Z,86.44
2018-12-27T04:48:55.206Z,85.91
2018-12-27T04:54:14.949Z,85.59
2018-12-27T04:59:34.659Z,86.01
2018-12-27T05:04:55.406Z,86.07
2018-12-27T05:10:14.619Z,84.87
2018-12-27T05:15:34.182Z,84.25
2018-12-27T05:20:53.543Z,83.41
2018-12-27T05:26:14.158Z,83.02
2018-12-27T05:31:34.469Z,82.85
2018-12-27T05:36:55.219Z,81.43
2018-12-27T05:42:14.684Z,81.63
2018-12-27T05:47:34.646Z,80.11
2018-12-27T05:52:54.277Z,79.38
2018-12-27T05:58:14.295Z,79.84
2018-12-27T06:03:33.734Z,80.46
2018-12-27T06:08:53.578Z,82.05
2018-12-27T06:14:13.544Z,82.37
2018-12-27T06:19:34.118Z,82.05
2018-12-27T06:24:54.037Z,82.22
2018-12-27T06:30:13.417Z,82.40
2018-12-27T06:35:32.847Z,82.47
2018-12-27T06:40:52.122Z,82.44
2018-12-27T06:46:11.415Z,81.79
2018-12-27T06:51:30.476Z,80.96
2018-12-27T06:56:49.764Z,80.38
2018-12-27T07:02:09.142Z,80.35
2018-12-27T07:07:29.048Z,80.48
2018-12-27T07:12:49.435Z,79.85
2018-12-27T07:18:10.925Z,80.12
2018-12-27T07:23:35.509Z,80.63
2018-12-27T07:28:56.144Z,80.83
2018-12-27T07:34:15.109Z,80.48
2018-12-27T07:39:34.742Z,80.73
2018-12-27T07:44:54.069Z,80.64
2018-12-27T07:50:14.028Z,80.27
2018-12-27T07:55:33.831Z,80.25
2018-12-27T08:00:53.104Z,79.86
2018-12-27T08:06:12.933Z,79.83
2018-12-27T08:11:32.934Z,80.62
2018-12-27T08:16:53.701Z,80.61
2018-12-27T08:22:12.757Z,81.10
2018-12-27T08:27:32.912Z,80.61
2018-12-27T08:32:53.552Z,80.74
2018-12-27T08:38:13.374Z,80.37
2018-12-27T08:43:32.908Z,80.23
2018-12-27T08:48:53.153Z,80.29
2018-12-27T08:54:14.402Z,79.94
2018-12-27T08:59:34.758Z,80.59
2018-12-27T09:04:55.415Z,80.43
2018-12-27T09:10:16.133Z,79.86
2018-12-27T09:15:36.505Z,79.61
2018-12-27T09:20:57.144Z,79.70
2018-12-27T09:26:16.485Z,79.62
2018-12-27T09:31:36.939Z,79.07
2018-12-27T09:36:56.065Z,78.86
2018-12-27T09:42:15.349Z,78.56
2018-12-27T09:47:34.641Z,78.14
2018-12-27T09:52:53.919Z,77.52
2018-12-27T09:58:15.336Z,76.63
2018-12-27T10:03:35.404Z,77.21
2018-12-27T10:08:54.631Z,77.03
2018-12-27T10:14:14.383Z,76.98
2018-12-27T10:19:34.125Z,76.31
2018-12-27T10:24:54.329Z,76.01
2018-12-27T10:30:14.573Z,75.50
2018-12-27T10:35:40.940Z,74.96
2018-12-27T10:40:53.791Z,74.97
2018-12-27T10:46:12.896Z,74.42
2018-12-27T10:51:33.164Z,74.06
2018-12-27T10:56:52.420Z,73.59
2018-12-27T11:02:12.705Z,73.50
2018-12-27T11:07:32.742Z,73.39
2018-12-27T11:12:51.807Z,73.60
2018-12-27T11:18:11.135Z,73.70
2018-12-27T11:23:30.644Z,73.83
2018-12-27T11:28:50.238Z,74.58
2018-12-27T11:34:10.829Z,74.18
2018-12-27T11:39:30.260Z,74.15
2018-12-27T11:44:50.415Z,73.54
2018-12-27T11:50:10.263Z,74.04
2018-12-27T11:55:29.529Z,73.98
2018-12-27T12:00:49.931Z,73.44
2018-12-27T12:06:09.666Z,70.45
2018-12-27T12:11:29.958Z,69.22
2018-12-27T12:16:50.682Z,67.06
2018-12-27T12:22:11.088Z,63.92
2018-12-27T12:27:30.581Z,62.99
2018-12-27T12:32:50.172Z,62.87
2018-12-27T12:38:10.169Z,64.30
2018-12-27T12:43:29.881Z,65.09
2018-12-27T12:48:49.700Z,62.58
2018-12-27T12:54:10.215Z,64.26
2018-12-27T12:59:30.653Z,63.18
2018-12-27T13:04:50.354Z,59.47
2018-12-27T13:10:10.849Z,54.40
2018-12-27T13:15:30.468Z,53.34
2018-12-27T13:20:50.872Z,48.19
2018-12-27T13:26:09.937Z,49.07
2018-12-27T13:31:31.487Z,53.23
2018-12-27T13:36:50.893Z,54.01
2018-12-27T13:42:10.903Z,55.33
2018-12-27T13:47:30.674Z,58.43
2018-12-27T13:52:51.207Z,60.42
2018-12-27T13:58:10.558Z,62.20
2018-12-27T14:03:30.280Z,64.64
2018-12-27T14:08:50.288Z,66.58
2018-12-27T14:14:10.037Z,68.01
2018-12-27T14:19:30.092Z,69.87
2018-12-27T14:24:49.717Z,71.79
2018-12-27T14:30:10.038Z,72.67
2018-12-27T14:35:31.547Z,72.62
2018-12-27T14:40:55.781Z,70.46
2018-12-27T14:46:15.072Z,70.63
2018-12-27T14:51:34.666Z,72.11
2018-12-27T14:56:54.032Z,72.70
2018-12-27T15:02:13.284Z,74.21
2018-12-27T15:07:32.578Z,75.48
2018-12-27T15:12:52.227Z,76.04
2018-12-27T15:18:11.682Z,76.10
2018-12-27T15:23:31.031Z,76.22
2018-12-27T15:28:51.268Z,76.30
2018-12-27T15:34:11.497Z,76.53
2018-12-27T15:39:31.520Z,77.44
2018-12-27T15:44:51.924Z,78.48
2018-12-27T15:50:11.741Z,79.05
2018-12-27T15:55:33.457Z,79.53
2018-12-27T16:00:53.667Z,80.03
2018-12-27T16:06:14.095Z,81.83
2018-12-27T16:11:34.613Z,81.51
2018-12-27T16:16:53.949Z,82.47
2018-12-27T16:22:13.362Z,83.46
2018-12-27T16:27:32.952Z,84.11
2018-12-27T16:33:00.805Z,83.87
2018-12-27T16:38:20.604Z,83.22
2018-12-27T16:43:40.680Z,84.20
2018-12-27T16:49:03.149Z,85.37
2018-12-27T16:54:23.164Z,85.46
2018-12-27T16:59:46.740Z,86.06
2018-12-27T17:05:08.872Z,87.03
2018-12-27T17:10:28.931Z,87.22
2018-12-27T17:15:51.267Z,86.46
2018-12-27T17:21:10.976Z,86.46
2018-12-27T17:26:31.378Z,86.80
2018-12-27T17:31:50.615Z,87.53
2018-12-27T17:37:10.346Z,87.45
2018-12-27T17:42:30.292Z,87.42
2018-12-27T17:47:50.837Z,88.62
2018-12-27T17:53:12.694Z,88.24
2018-12-27T17:58:33.299Z,89.14
2018-12-27T18:03:52.915Z,90.06
2018-12-27T18:09:13.595Z,90.27
2018-12-27T18:14:36.322Z,90.27
2018-12-27T18:19:55.483Z,89.61
2018-12-27T18:25:17.013Z,90.08
2018-12-27T18:30:37.374Z,90.46
2018-12-27T18:35:57.600Z,90.64
2018-12-27T18:41:17.968Z,90.89
2018-12-27T18:46:39.373Z,92.28
2018-12-27T18:51:59.586Z,92.27
2018-12-27T18:57:21.066Z,91.84
2018-12-27T19:02:42.052Z,91.93
2018-12-27T19:08:02.382Z,91.93
2018-12-27T19:13:23.768Z,92.16
2018-12-27T19:18:47.316Z,92.68
2018-12-27T19:24:08.055Z,92.68
2018-12-27T19:29:28.225Z,92.86
2018-12-27T19:34:49.514Z,92.83
2018-12-27T19:40:13.955Z,93.10
2018-12-27T19:45:39.613Z,93.10
2018-12-27T19:50:59.940Z,93.29
2018-12-27T19:56:20.821Z,93.53
2018-12-27T20:01:41.540Z,93.54
2018-12-27T20:07:02.061Z,93.65
2018-12-27T20:12:23.439Z,93.73
2018-12-27T20:17:43.371Z,93.78
2018-12-27T20:23:05.782Z,93.79
2018-12-27T20:28:26.726Z,93.90
2018-12-27T20:33:48.255Z,93.96
2018-12-27T20:39:08.649Z,93.99
2018-12-27T20:44:28.474Z,93.99
2018-12-27T20:49:48.657Z,94.20
2018-12-27T20:55:08.278Z,94.17
2018-12-27T21:00:30.094Z,94.34
2018-12-27T21:05:49.795Z,94.26
2018-12-27T21:11:10.720Z,94.33
2018-12-27T21:16:31.153Z,94.37
2018-12-27T21:21:52.205Z,94.32
2018-12-27T21:27:12.261Z,94.31
2018-12-27T21:32:32.136Z,94.50
2018-12-27T21:37:52.138Z,94.47
2018-12-27T21:43:14.054Z,94.56
2018-12-27T21:48:34.399Z,94.54
2018-12-27T21:53:54.118Z,94.55
2018-12-27T21:59:13.927Z,94.56
2018-12-27T22:04:35.138Z,94.64
2018-12-27T22:09:55.062Z,94.69
2018-12-27T22:15:16.049Z,94.74
2018-12-27T22:20:36.851Z,94.71
2018-12-27T22:25:57.303Z,94.85
2018-12-27T22:31:17.718Z,94.96
2018-12-27T22:36:37.776Z,94.99
2018-12-27T22:41:58.560Z,95.05
2018-12-27T22:47:18.684Z,95.04
2018-12-27T22:52:39.513Z,95.05
2018-12-27T22:57:59.867Z,95.10
2018-12-27T23:03:19.732Z,95.13
2018-12-27T23:08:42.982Z,95.10
2018-12-27T23:13:59.394Z,95.13
2018-12-27T23:19:18.751Z,95.15
2018-12-27T23:24:38.324Z,95.19
2018-12-27T23:29:58.382Z,95.22
2018-12-27T23:35:17.655Z,95.29
2018-12-27T23:40:37.823Z,95.32
2018-12-27T23:45:57.843Z,95.32
2018-12-27T23:51:17.522Z,95.33
2018-12-27T23:56:36.755Z,95.40
